Headquarters, Valles Caldera, New Mexico Weather observations

Data are for 10 minute period ending at time listed.
 Day   Time   Solar   Ave.   Ave.  Ave.  Vector  Max.   Baro.   Total    
  of    of     Rad.   Air    Rel.  Wind   Wind   Wind  Press.  Precip.   
Year   Day            Temp.  Hum.  Speed  Dir.   Gust                    
2017   (MST)  Kw/m2    F      %     mph   deg.    mph    mb.     in.     
-------------------------------------------------------------------------
 202   13:20   0.19   73.3    39    5.3   162    13.1   745.2    0.00 
 202   13:30   0.24   71.4    42    3.8   191    10.8   745.1    0.00 
 202   13:40   0.16   71.9    39    2.7   256     7.8   745.0    0.00 
 202   13:50   0.14   71.0    43    4.2   173     8.4   744.9    0.00 
 202   14:00   0.18   71.0    43    4.1   212     9.6   744.9    0.00 
 202   14:10   0.75   73.2    41    3.8   268     7.2   744.8    0.00 
 202   14:20   0.79   76.2    36    5.3   265    11.9   744.6    0.00 
 202   14:30   0.50   75.7    37    8.0   225    14.3   744.5    0.00 
 202   14:40   0.89   76.7    36    7.3   256    13.1   744.4    0.00 
 202   14:50   0.22   75.8    35    6.4   194    12.5   744.3    0.00 
 202   15:00   0.12   71.0    39    5.5   178     9.6   744.4    0.00 
 202   15:10   0.10   70.3    43    4.5   201     7.2   744.3    0.00 
 202   15:20   0.33   70.4    42    4.6   208     8.4   744.2    0.00 
 202   15:30   0.44   73.6    39    4.0   236     9.0   744.1    0.00 
 202   15:40   0.32   74.1    39    5.3   208     7.8   744.1    0.00 
 202   15:50   0.34   74.5    36    4.4   228     6.0   744.1    0.00 
 202   16:00   0.08   72.2    38    4.1   264     7.2   744.0    0.00 
 202   16:10   0.09   70.4    42    4.6   273     7.8   744.1    0.00 
 202   16:20   0.37   71.2    40    4.6   256     8.4   744.2    0.00 
 202   16:30   0.47   75.8    32    3.7   238    11.9   744.0    0.00 
 202   16:40   0.19   75.2    31    4.2   195     9.0   744.0    0.00 
 202   16:50   0.10   71.9    35    5.3   229     9.6   743.9    0.00 
 202   17:00   0.10   70.5    38    3.0   247     6.0   743.9    0.00 
 202   17:10   0.09   70.1    39    3.7   226     6.0   743.9    0.00 
 202   17:20   0.09   69.6    42    3.4   223     4.8   743.9    0.00 
 202   17:30   0.09   68.7    44    2.8   244     5.4   743.9    0.00 
 202   17:40   0.09   68.5    44    3.4   236     6.6   743.9    0.00 
 202   17:50   0.05   68.4    41    4.0   252     7.8   743.9    0.00 
 202   18:00   0.03   67.4    40    4.7   237     9.0   743.9    0.00 
 202   18:10   0.02   66.1    43    4.3   264     6.0   743.9    0.00 
 202   18:20   0.02   65.4    43    5.3   250     7.8   743.8    0.00 
 202   18:30   0.02   64.9    45    4.7   265     6.6   743.9    0.00 
 202   18:40   0.03   63.4    50    4.4   252     6.0   743.9    0.00 
 202   18:50   0.02   62.5    51    4.5   268     6.6   744.0    0.00 
 202   19:00   0.02   62.5    53    4.4   256     6.0   744.0    0.00 
 202   19:10   0.01   60.5    56    4.8   242     8.4   744.1    0.00 
 202   19:20   0.00   62.3    51    4.3   261     6.0   744.3    0.00 
 202   19:30   0.00   62.1    52    4.4   244     6.6   744.5    0.00 
 202   19:40   0.00   62.1    53    3.6   265     5.4   744.7    0.00 
 202   19:50   0.00   60.6    57    3.5   228     4.8   744.7    0.00 
 202   20:00   0.00   59.0    61    2.3   318     4.8   744.7    0.00 
 202   20:10   0.00   58.8    62    2.7   273     5.4   744.8    0.00 
 202   20:20   0.00   59.0    61    3.0   260     6.0   744.9    0.00 
 202   20:30   0.00   59.0    61    2.2   283     4.2   744.9    0.00 
 202   20:40   0.00   59.5    61    3.3   286     4.8   745.0    0.00 
 202   20:50   0.00   58.2    65    3.3   260     5.4   745.1    0.00 
 202   21:00   0.00   57.0    67    3.4   229     6.0   745.1    0.00 
 202   21:10   0.00   56.6    69    2.7   284     6.6   745.1    0.00 
 202   21:20   0.00   56.1    69    1.9   258     4.2   745.1    0.00 
 202   21:30   0.00   56.2    69    1.5   291     4.2   745.3    0.00 
 202   21:40   0.00   56.0    69    3.8   283     6.0   745.3    0.00 
 202   21:50   0.00   54.3    74    3.3   256     6.0   745.3    0.00 
 202   22:00   0.00   53.5    76    2.5   287     4.2   745.3    0.00 
 202   22:10   0.00   54.6    72    2.9   288     6.0   745.4    0.00 
 202   22:20   0.00   56.0    69    1.9   236     3.6   745.3    0.00 
 202   22:30   0.00   55.1    71    1.2   204     3.6   745.3    0.00 
 202   22:40   0.00   54.5    72    1.7   316     5.4   745.3    0.00 
 202   22:50   0.00   55.3    70    2.2   278     4.8   745.3    0.00 
 202   23:00   0.00   56.3    68    2.6   281     5.4   745.4    0.00 
 202   23:10   0.00   54.9    73    2.0   259     4.8   745.5    0.00 
 202   23:20   0.00   55.2    73    2.6   281     4.2   745.5    0.00 
 202   23:30   0.00   54.9    74    3.3   272     4.2   745.5    0.00 
 202   23:40   0.00   54.3    77    3.6   277     4.8   745.5    0.00 
 202   23:50   0.00   53.7    79    3.9   274     4.8   745.5    0.00 
 203    0:00   0.00   53.3    80    2.7   283     4.8   745.5    0.00 
 203    0:10   0.00   52.5    82    3.9   249     5.4   745.5    0.00 
 203    0:20   0.00   51.9    85    4.1   276     5.4   745.5    0.00 
 203    0:30   0.00   52.1    84    2.0   299     4.2   745.6    0.00 
 203    0:40   0.00   52.6    83    2.9   254     4.8   745.6    0.00 
 203    0:50   0.00   52.4    83    3.3   280     5.4   745.6    0.00 
 203    1:00   0.00   51.6    84    1.8     8     3.0   745.6    0.00 
 203    1:10   0.00   51.3    83    0.6   226     3.0   745.6    0.00 
 203    1:20   0.00   51.4    84    1.4   298     3.0   745.6    0.00 
 203    1:30   0.00   51.3    84    2.2   242     6.0   745.5    0.00 
 203    1:40   0.00   50.6    86    3.5   259     6.6   745.3    0.00 
 203    1:50   0.00   51.1    86    1.5   283     3.6   745.3    0.00 
 203    2:00   0.00   51.7    84    3.7   288     5.4   745.1    0.00 
 203    2:10   0.00   50.5    85    3.1   210     4.8   745.0    0.00 
 203    2:20   0.00   49.1    88    3.3   352     4.8   745.1    0.00 
 203    2:30   0.00   49.0    86    2.8   226     4.8   745.0    0.00 
 203    2:40   0.00   47.7    90    4.0   247     5.4   744.9    0.00 
 203    2:50   0.00   48.1    91    3.6   253     5.4   744.8    0.00 
 203    3:00   0.00   48.4    92    3.7   304     4.8   744.6    0.00 
 203    3:10   0.00   47.4    89    2.3   204     4.2   744.6    0.00 
 203    3:20   0.00   47.0    91    4.4   240     6.0   744.6    0.00 
 203    3:30   0.00   48.1    93    2.7   282     3.6   744.6    0.00 
 203    3:40   0.00   48.2    89    1.7    27     4.8   744.8    0.00 
 203    3:50   0.00   46.8    91    2.2   270     4.8   744.9    0.00 
 203    4:00   0.00   46.3    91    4.8   241     6.6   744.9    0.00 
 203    4:10   0.00   47.1    93    3.8   284     4.8   744.9    0.00 
 203    4:20   0.00   47.9    89    2.2   289     4.8   744.9    0.00 
 203    4:30   0.00   46.6    90    1.0     2     2.4   745.0    0.00 
 203    4:40   0.00   46.3    92    0.1     1     1.2   745.0    0.00 
 203    4:50   0.00   46.3    92    1.9   279     3.0   745.0    0.00 
 203    5:00   0.00   46.4    92    2.9   305     3.6   745.0    0.00 
 203    5:10   0.00   46.1    91    3.8   237     6.0   745.0    0.00 
 203    5:20   0.01   45.9    93    3.8   284     4.8   745.0    0.00 
 203    5:30   0.02   47.0    91    3.2   247     4.8   745.0    0.00 
 203    5:40   0.04   48.1    86    0.9    49     3.6   745.1    0.00 
 203    5:50   0.07   48.9    84    0.5   329     2.4   745.2    0.00 
 203    6:00   0.10   50.0    86    0.2   356     2.4   745.4    0.00 
 203    6:10   0.12   53.0    83    3.4   223     4.8   745.5    0.00 
 203    6:20   0.14   56.5    78    2.7   194     4.8   745.5    0.00 
 203    6:30   0.17   53.8    80    3.2    97     5.4   745.7    0.00 
 203    6:40   0.19   53.4    81    1.0    82     4.2   745.9    0.00 
 203    6:50   0.22   57.0    74    1.4    77     3.6   745.9    0.00 
 203    7:00   0.25   57.7    74    1.5    62     3.0   746.0    0.00 
 203    7:10   0.28   60.2    69    0.2   147     1.8   746.1    0.00 
 203    7:20   0.31   60.9    68    1.8   103     3.6   746.2    0.00 
 203    7:30   0.34   61.6    69    2.3    64     4.2   746.3    0.00 
 203    7:40   0.36   62.7    67    2.6    92     4.2   746.3    0.00 
 203    7:50   0.39   64.8    64    1.7    59     3.0   746.3    0.00 
 203    8:00   0.41   67.6    59    2.3    74     6.0   746.3    0.00 
 203    8:10   0.23   65.6    64    4.3    82     5.4   746.3    0.00 
 203    8:20   0.18   63.1    70    3.3    66     4.8   746.3    0.00 
 203    8:30   0.23   63.8    68    1.9    70     3.6   746.4    0.00 
 203    8:40   0.28   65.4    64    1.6   325     3.0   746.4    0.00 
 203    8:50   0.60   68.2    54    1.9   340     3.6   746.4    0.00 
 203    9:00   0.44   70.3    48    2.6    78     5.4   746.3    0.00 
 203    9:10   0.40   70.7    50    2.3    18     4.8   746.4    0.00 
 203    9:20   0.62   69.9    50    3.1    46     6.0   746.4    0.00 
 203    9:30   0.67   71.2    48    3.6     0     6.0   746.4    0.00 
 203    9:40   0.23   70.8    47    3.4   127     7.2   746.3    0.00 
 203    9:50   0.11   67.8    52    3.6   168     7.8   746.3    0.00 
 203   10:00   0.39   70.3    48    3.1   120     7.8   746.3    0.00 
 203   10:10   0.21   70.5    47    3.3    57     5.4   746.4    0.00 
 203   10:20   0.77   70.5    48    4.3     3    10.2   746.3    0.00 
 203   10:30   0.85   72.5    46    7.9   103    12.5   746.2    0.00 
 203   10:40   0.80   72.8    43    7.4    80    13.1   746.1    0.00 
 203   10:50   0.88   72.9    44    7.3   108    12.5   746.1    0.00 
 203   11:00   0.74   73.7    40    6.5   112    13.7   746.1    0.00 
 203   11:10   0.51   72.1    40    6.6    88    12.5   746.1    0.00 
 203   11:20   0.64   72.8    40    5.0   121    10.8   746.0    0.00 
 203   11:30   0.72   73.0    37    6.8    96    11.9   746.0    0.00 
 203   11:40   0.63   73.0    36    4.1   121     9.6   745.9    0.00 
 203   11:50   0.31   72.6    40    3.4   140     9.6   745.8    0.00 
 203   12:00   0.54   71.5    50    8.2   204    13.7   745.8    0.00 
 203   12:10   0.72   72.6    50   10.6   208    16.7   745.8    0.00 
 203   12:20   0.75   73.2    50    9.7   215    16.1   745.7    0.00 
 203   12:30   0.84   74.0    48    9.7   210    17.3   745.6    0.00 
 203   12:40   0.97   75.1    45    7.7   216    14.9   745.4    0.00 
 203   12:50   0.80   75.4    42    7.3   237    12.5   745.3    0.00 
 203   13:00   0.45   73.0    43    4.0   209    11.9   745.1    0.00 
 203   13:10   0.59   73.8    43    5.9   206    10.2   745.1    0.00 

Return to Headquarters, Valles Caldera graphs page.


Western Regional Climate Center,wrcc@dri.edu